Quinter, KS

2:06 AM CDT on July 24, 2014 (GMT -0500)
WaKeeney East Side (KKSWAKEE1) Elev 2486 ft | 39.03 °N, 99.87 °W | Change Station

Current weather conditions updated 4 minutes ago

Clear
Clear
70.2 °F
Feels Like 73 °F
N
0.0
Wind Variable Wind from North
Gusts 0.0 mph

Today is forecast to be Much Warmer than yesterday.

Today
High -- | Low -- °F
--% Chance of Precip.
Yesterday
High -- | Low -- °F
Precip. -- in
6:35 AM 8:59 PM
Waning Crescent, 6% visible
Pressure 30.09 in
Visibility 10.0 miles
Clouds Clear
Heat Index 73 °F
Dew Point 61 °F
Humidity 73%
Rainfall -999.00 in
Snow Depth Not available.
UV 0 out of 12
Pollen 6.70 out of 12
Air Quality Not available.
Flu Activity Not available.
METAR KHLC 240653Z AUTO 00000KT 10SM CLR 19/17 A3015 RMK AO2 SLP189 T01940167

More Conditions Fewer Conditions

Pressure 30.09 in
Visibility 10.0 miles
Clouds Clear
Heat Index 73 °F
Dew Point 61 °F
Humidity 73%
Rainfall -999.00 in
Snow Depth Not available.
UV 0 out of 12
Pollen 6.70 out of 12
Air Quality Not available.
Flu Activity Not available.
METAR KHLC 240653Z AUTO 00000KT 10SM CLR 19/17 A3015 RMK AO2 SLP189 T01940167

More Conditions Fewer Conditions

10-Day Weather Forecast

Almanac

Astronomy

Jul. 24, 2014 Rise Set
Actual Time 6:35 AM CDT 8:59 PM CDT
Civil Twilight 6:04 AM CDT 9:29 PM CDT
Nautical Twilight 5:27 AM CDT 10:07 PM CDT
Astronomical Twilight 4:45 AM CDT 10:48 PM CDT
Moon 4:44 AM CDT 7:16 PM CDT
Length of Visible Light 15h 25m
Length of Day
14h 24m
Tomorrow will be 1m 40s shorter.
Waning Crescent, 6% of the Moon is Illuminated
Today
Waning Crescent
Jul 26
New
Aug 3
First Quarter
Aug 10
Full
Aug 17
Last Quarter

Today's Extremes

State Highs State Lows

Community

WunderPhotos

Upload Photos

1,736,950 photos uploaded!

Nearby

Snow Depth

Station Depth Elevation
No new snow has been reported.

Earthquake Activity

City Distance Mag. Time & Date
No recent earthquake activity has been reported nearby.
Minimum magnitude displayed is 2.5.

Coastal Water Temperatures

Place Temperature
No Stations Reporting

Nearby Weather Stations

Station Location Temp. Heat Index Dew Point Humidity Wind Precip. Elev Updated Type
MesoWest QUNTER , Park, KS 78 °F 76 °F - - North  at  - 0.00 in / hr 2638 ft 12:50 AM CDT MADIS
WaKeeney East Side, WaKeeney, KS 70.2 °F 73 °F 61 °F 73% North  at  0.0 mph 0.00 in / hr 2486 ft 2:01 AM CDT Normal
MesoWest GRINEL , Grinnell, KS 73 °F 71 °F - - North  at  - 0.00 in / hr 2879 ft 12:45 AM CDT MADIS

Show More Stations Show Fewer Stations